עמוד ראשי
METAR-TAF:

METAR-TAF

שדות תעופה :

Curicó, צ'ילה

קו רוחב: 34-58S, קו אורך: 071-14W, גובה: 228מטר

תצפית מזג אוויר נוכחית

הדו"ח נערך לפני 50דקות, בשעה 23:00 UTC
רוח 2קשר מכיוון צפון/צפון-מערב
טמפרטורת 12 צלסיוס
לחות 82%
לחץ 1020 hPa

METAR: SCIC 152300Z AUTO 34002KT //// R/////// // NCD 12/09 Q1020

זמן: 19:50 (23:50 UTC)


TAF: חסר

תצפיות ותחזיות מזג אוויר לגבי יותר מ- 4,000 שדות תעופה ברחבי העולם. דוחות METAR ו- TAF.

התחנות הזמינות מסומנות בנקודות צהובות ואדומות על גבי המפה.

העבר את העכבר לנקודה הצבעונית על מנת לראות את שם התחנה.

לאחר מכן, לחץ כדי לראות את תוכן ואת תחזיות מזג האוויר.

כדי לשנות את המפה: לחץ על הכפתורים הירוקים עם הפלוס השחור כדי להתקרב; על הכפתור הירוק עם המקף כדי להתרחק; או בחיצים הירוקים למפות סמוכות.


METAR-TAF: